Puget — AEQW — position and weather

sailwx.info

Track history (hours):
 
Tides and Currents Weather Stations Pressure Air Temp Water Temp Dewpoint Dewpoint Depression Visibility Wind Speed Wind Dir Waves Ship Positions

Puget

Last reported at 2016-Jun-16 23:33 UTC. Time now 2016-Jun-25 10:41 UTC.
Position N 47°40' W 122°24'.
Warning: this ship's position is 8 days out of date.

Length 20 m; draft 0.2 m.

Type: Ship. MMSI: 369970510.

Date/timePositionNaut miles runAvg speedWind from/ knotsBaromVisibWave heightAir tempDewpointWater temp
2016-Jun-16 23:33N 47°40' W 122°24'0 0.0
2016-Jun-16 22:34N 47°40' W 122°24'2 2.1
2016-Jun-16 21:23N 47°38' W 122°25'3 3.5
2016-Jun-16 20:33N 47°37' W 122°21'2 1.9
2016-Jun-16 19:33N 47°38' W 122°23'5 1.5
2016-Jun-16 16:23N 47°37' W 122°30'5 5.7
2016-Jun-16 15:34N 47°41' W 122°27'2 2.3
2016-Jun-16 14:34N 47°40' W 122°24'  
2016-Jun-09 16:19N 47°40' W 122°24'2 1.3
2016-Jun-09 14:33N 47°39' W 122°21'2 0.1
2016-Jun-07 20:08N 47°40' W 122°24'0 0.9
2016-Jun-07 19:34N 47°40' W 122°23'  
Track history (hours):
 
Tides and Currents Weather Stations Pressure Air Temp Water Temp Dewpoint Dewpoint Depression Visibility Wind Speed Wind Dir Waves Ship Positions

Puget

Last reported at 2016-Jun-16 23:33 UTC. Time now 2016-Jun-25 10:41 UTC.
Position N 47°40' W 122°24'.
Warning: this ship's position is 8 days out of date.

Length 20 m; draft 0.2 m.

Type: Ship. MMSI: 369970510.

Date/timePositionNaut miles runAvg speedWind from/ knotsBaromVisibWave heightAir tempDewpointWater temp
2016-Jun-16 23:33N 47°40' W 122°24'0 0.0
2016-Jun-16 22:34N 47°40' W 122°24'2 2.1
2016-Jun-16 21:23N 47°38' W 122°25'3 3.5
2016-Jun-16 20:33N 47°37' W 122°21'2 1.9
2016-Jun-16 19:33N 47°38' W 122°23'5 1.5
2016-Jun-16 16:23N 47°37' W 122°30'5 5.7
2016-Jun-16 15:34N 47°41' W 122°27'2 2.3
2016-Jun-16 14:34N 47°40' W 122°24'  
2016-Jun-09 16:19N 47°40' W 122°24'2 1.3
2016-Jun-09 14:33N 47°39' W 122°21'2 0.1
2016-Jun-07 20:08N 47°40' W 122°24'0 0.9
2016-Jun-07 19:34N 47°40' W 122°23'  

Dump ship's entire track history